Time;durP1;ratioP1;P1;durP2;ratioP2;P2;SDS_P1;SDS_P2;PMS_P1;PMS_P2;Temp;Humidity;BMP_temperature;BMP_pressure;BME280_temperature;BME280_humidity;BME280_pressure;Samples;Min_cycle;Max_cycle;Signal;HPM_P1;HPM_P2
2023/06/03 00:02:01;;;;;;;1.80;1.00;;;12.30;99.90;;;;;;5032410;28;20041;-76
2023/06/03 00:04:29;;;;;;;4.32;1.23;;;12.30;99.90;;;;;;5030992;28;20095;-77
2023/06/03 00:06:58;;;;;;;2.10;0.90;;;12.20;99.90;;;;;;5032105;28;20064;-76
2023/06/03 00:09:24;;;;;;;2.55;0.75;;;12.20;99.90;;;;;;5024153;28;20049;-76
2023/06/03 00:11:50;;;;;;;2.80;0.80;;;12.10;99.90;;;;;;5012754;28;20041;-76
2023/06/03 00:14:19;;;;;;;2.03;0.80;;;12.10;99.90;;;;;;5031915;28;20493;-78
2023/06/03 00:16:46;;;;;;;3.03;1.00;;;12.10;99.90;;;;;;5015338;28;20046;-80
2023/06/03 00:19:14;;;;;;;2.28;0.80;;;12.00;99.90;;;;;;5013996;28;20087;-81
2023/06/03 00:21:45;;;;;;;2.42;0.82;;;12.00;99.90;;;;;;5018457;28;20120;-81
2023/06/03 00:24:13;;;;;;;5.72;0.82;;;12.00;99.90;;;;;;5017403;28;20125;-81
2023/06/03 00:26:39;;;;;;;4.72;0.88;;;11.90;99.90;;;;;;5016728;28;20048;-82
2023/06/03 00:29:04;;;;;;;2.47;0.60;;;11.90;99.90;;;;;;5034252;28;20044;-80
2023/06/03 00:31:30;;;;;;;2.10;0.60;;;11.90;99.90;;;;;;5017361;28;20041;-80
2023/06/03 00:33:56;;;;;;;1.75;0.50;;;11.80;99.90;;;;;;5015403;28;20037;-81
2023/06/03 00:36:22;;;;;;;3.03;0.45;;;11.80;99.90;;;;;;5018092;28;20073;-81
2023/06/03 00:38:51;;;;;;;2.20;0.82;;;11.70;99.90;;;;;;5012642;28;20118;-81
2023/06/03 00:41:20;;;;;;;3.88;1.42;;;11.70;99.90;;;;;;5032359;28;20502;-81
2023/06/03 00:43:46;;;;;;;5.10;2.53;;;11.60;99.90;;;;;;5017935;28;20052;-81
2023/06/03 00:46:13;;;;;;;3.67;1.80;;;11.60;99.90;;;;;;5013673;28;20128;-82
2023/06/03 00:48:39;;;;;;;3.67;1.60;;;11.50;99.90;;;;;;5016226;28;20037;-81
2023/06/03 00:51:06;;;;;;;2.13;0.93;;;11.50;99.90;;;;;;5017898;28;20041;-82
2023/06/03 00:53:32;;;;;;;2.45;0.68;;;11.50;99.90;;;;;;5032668;28;20049;-81
2023/06/03 00:55:59;;;;;;;1.88;0.95;;;11.50;99.90;;;;;;5033235;28;20073;-81
2023/06/03 00:58:25;;;;;;;3.70;0.90;;;11.40;99.90;;;;;;5031784;28;20145;-81
2023/06/03 01:00:50;;;;;;;1.98;0.68;;;11.40;99.90;;;;;;5014181;28;20124;-80
2023/06/03 01:03:19;;;;;;;1.85;0.80;;;11.40;99.90;;;;;;5030173;28;20038;-80
2023/06/03 01:05:54;;;;;;;5.15;1.42;;;11.30;99.80;;;;;;5014686;28;20045;-80
2023/06/03 01:08:55;;;;;;;2.50;1.27;;;11.30;99.90;;;;;;4999985;28;20124;-80
2023/06/03 01:11:36;;;;;;;1.75;1.00;;;11.30;99.20;;;;;;5019219;28;20053;-80
2023/06/03 01:14:37;;;;;;;3.00;0.98;;;11.20;99.40;;;;;;5029158;28;20052;-80
2023/06/03 01:17:09;;;;;;;2.33;0.50;;;11.30;99.30;;;;;;5024135;28;20072;-80
2023/06/03 01:19:48;;;;;;;3.08;0.80;;;11.20;99.60;;;;;;5030469;28;20073;-81
2023/06/03 01:22:15;;;;;;;2.70;0.90;;;11.20;99.40;;;;;;5022824;28;20048;-81
2023/06/03 01:24:42;;;;;;;1.45;0.50;;;11.20;99.50;;;;;;5032162;28;20603;-80
2023/06/03 01:27:10;;;;;;;3.60;0.45;;;11.10;99.60;;;;;;5029513;28;20050;-80
2023/06/03 01:29:41;;;;;;;2.05;0.50;;;11.10;99.50;;;;;;5031149;28;20045;-80
2023/06/03 01:32:11;;;;;;;6.40;2.50;;;11.10;99.30;;;;;;5029426;28;20430;-79
2023/06/03 01:34:38;;;;;;;6.05;2.95;;;11.10;99.40;;;;;;5013081;28;20484;-80
2023/06/03 01:37:05;;;;;;;4.55;2.65;;;11.00;99.50;;;;;;5015440;28;20486;-79
2023/06/03 01:39:32;;;;;;;5.68;1.92;;;11.00;99.60;;;;;;5029944;28;20103;-80
2023/06/03 01:41:57;;;;;;;3.63;1.80;;;11.00;99.70;;;;;;5030796;28;20053;-80
2023/06/03 01:44:23;;;;;;;3.03;1.17;;;10.90;99.80;;;;;;5015517;28;20131;-80
2023/06/03 01:46:49;;;;;;;3.95;1.02;;;10.90;99.90;;;;;;5013855;28;20502;-80
2023/06/03 01:49:17;;;;;;;1.50;0.77;;;10.80;99.90;;;;;;5018484;28;20050;-77
2023/06/03 01:51:44;;;;;;;1.90;0.65;;;10.80;99.80;;;;;;5043754;28;20041;-77
2023/06/03 01:54:10;;;;;;;3.05;0.60;;;10.80;99.90;;;;;;5045058;28;20064;-77
2023/06/03 01:56:36;;;;;;;1.85;0.63;;;10.80;99.90;;;;;;5031472;28;20037;-77
2023/06/03 01:59:02;;;;;;;3.22;0.50;;;10.80;99.90;;;;;;5027009;28;20033;-77
2023/06/03 02:01:27;;;;;;;1.48;0.55;;;10.70;99.90;;;;;;5012314;28;20150;-78
2023/06/03 02:03:53;;;;;;;1.55;0.80;;;10.70;99.90;;;;;;5029763;28;20064;-78
2023/06/03 02:06:19;;;;;;;2.20;0.90;;;10.60;99.90;;;;;;5015867;28;20514;-78
2023/06/03 02:08:45;;;;;;;3.88;1.30;;;10.60;99.90;;;;;;5014172;28;20041;-78
2023/06/03 02:11:10;;;;;;;1.67;1.00;;;10.60;99.90;;;;;;5029562;28;20049;-78
2023/06/03 02:13:36;;;;;;;4.18;1.00;;;10.60;99.90;;;;;;5010771;28;20042;-78
2023/06/03 02:16:03;;;;;;;4.45;0.68;;;10.60;99.90;;;;;;5030338;28;20038;-78
2023/06/03 02:18:29;;;;;;;3.40;0.50;;;10.60;99.90;;;;;;5012549;28;20461;-77
2023/06/03 02:20:55;;;;;;;2.05;0.50;;;10.60;99.90;;;;;;5008584;28;20044;-78
2023/06/03 02:23:21;;;;;;;1.85;0.68;;;10.50;99.90;;;;;;5031133;28;20497;-78
2023/06/03 02:25:48;;;;;;;2.97;0.50;;;10.50;99.90;;;;;;5027348;28;20091;-78
2023/06/03 02:28:16;;;;;;;2.78;0.80;;;10.50;99.90;;;;;;5029777;28;20057;-78
2023/06/03 02:30:42;;;;;;;3.53;0.60;;;10.50;99.90;;;;;;5013407;28;20037;-78
2023/06/03 02:33:08;;;;;;;1.27;0.43;;;10.40;99.90;;;;;;5043760;28;20047;-78
2023/06/03 02:35:34;;;;;;;0.95;0.43;;;10.40;99.90;;;;;;5047543;28;20097;-79
2023/06/03 02:38:00;;;;;;;3.35;0.50;;;10.40;99.90;;;;;;5045423;28;20029;-77
2023/06/03 02:40:26;;;;;;;2.78;0.65;;;10.40;99.90;;;;;;5029827;28;20060;-80
2023/06/03 02:42:52;;;;;;;2.67;0.50;;;10.30;99.90;;;;;;5048337;28;20048;-78
2023/06/03 02:45:20;;;;;;;2.38;0.70;;;10.30;99.90;;;;;;5044618;28;20044;-78
2023/06/03 02:47:47;;;;;;;2.38;0.63;;;10.30;99.90;;;;;;5029058;28;20065;-77
2023/06/03 02:50:16;;;;;;;2.53;0.65;;;10.20;99.90;;;;;;5031618;28;20052;-77
2023/06/03 02:52:41;;;;;;;1.95;0.60;;;10.20;99.90;;;;;;5049721;28;20073;-79
2023/06/03 02:55:08;;;;;;;2.30;0.63;;;10.20;99.90;;;;;;5032019;28;20033;-78
2023/06/03 02:57:34;;;;;;;2.00;0.70;;;10.10;99.90;;;;;;5048113;28;20129;-77
2023/06/03 03:00:00;;;;;;;2.13;0.60;;;10.10;99.90;;;;;;5032310;28;20041;-79
2023/06/03 03:02:26;;;;;;;1.42;0.60;;;10.10;99.90;;;;;;5048340;28;20037;-80
2023/06/03 03:04:53;;;;;;;1.95;0.65;;;10.10;99.90;;;;;;5031985;28;20033;-77
2023/06/03 03:07:20;;;;;;;3.00;0.60;;;10.00;99.90;;;;;;5017767;28;20405;-80
2023/06/03 03:09:46;;;;;;;3.30;0.70;;;10.00;99.90;;;;;;5022565;28;20054;-80
2023/06/03 03:12:11;;;;;;;2.25;0.50;;;9.90;99.90;;;;;;5013638;28;20176;-80
2023/06/03 03:14:37;;;;;;;1.65;0.60;;;9.90;99.90;;;;;;5013561;28;20116;-80
2023/06/03 03:17:03;;;;;;;2.63;0.70;;;9.90;99.90;;;;;;5013844;28;20106;-80
2023/06/03 03:19:29;;;;;;;3.20;0.82;;;9.90;99.90;;;;;;5028834;28;20381;-78
2023/06/03 03:21:55;;;;;;;1.95;0.52;;;9.80;99.90;;;;;;5014673;28;20052;-78
2023/06/03 03:24:22;;;;;;;1.05;0.50;;;9.80;99.90;;;;;;5031032;28;20541;-82
2023/06/03 03:26:49;;;;;;;2.35;0.65;;;9.80;99.90;;;;;;5034558;28;20111;-82
2023/06/03 03:29:16;;;;;;;3.83;0.60;;;9.80;99.90;;;;;;5034841;28;20044;-81
2023/06/03 03:31:42;;;;;;;2.53;0.93;;;9.80;99.90;;;;;;5015822;28;20136;-81
2023/06/03 03:34:08;;;;;;;1.50;0.50;;;9.80;99.90;;;;;;5036460;28;20076;-81
2023/06/03 03:36:36;;;;;;;0.82;0.43;;;9.80;99.90;;;;;;5033094;28;20124;-81
2023/06/03 03:39:06;;;;;;;2.22;0.63;;;9.70;99.90;;;;;;5020209;28;20055;-80
2023/06/03 03:41:32;;;;;;;3.58;0.80;;;9.70;99.90;;;;;;5018276;28;20041;-81
2023/06/03 03:43:59;;;;;;;1.35;0.63;;;9.70;99.90;;;;;;5018415;28;20138;-80
2023/06/03 03:46:24;;;;;;;1.67;0.50;;;9.70;99.90;;;;;;5017196;28;20052;-81
2023/06/03 03:48:51;;;;;;;1.92;0.50;;;9.60;99.90;;;;;;5015035;28;20041;-81
2023/06/03 03:51:16;;;;;;;3.83;1.02;;;9.70;99.90;;;;;;5017993;28;20037;-80
2023/06/03 03:53:45;;;;;;;2.30;0.50;;;9.70;99.90;;;;;;5016599;28;20094;-81
2023/06/03 03:56:22;;;;;;;1.65;0.50;;;9.60;99.90;;;;;;5034082;28;20038;-81
2023/06/03 03:58:49;;;;;;;1.65;0.50;;;9.70;99.90;;;;;;5014234;28;20037;-81
2023/06/03 04:01:18;;;;;;;2.45;0.80;;;9.70;99.90;;;;;;5033051;28;20048;-81
2023/06/03 04:03:50;;;;;;;1.65;0.60;;;9.70;99.90;;;;;;5017140;28;20122;-81
2023/06/03 04:06:36;;;;;;;2.42;0.50;;;9.70;99.90;;;;;;5017994;28;20056;-81
2023/06/03 04:09:06;;;;;;;2.03;0.70;;;9.70;99.90;;;;;;5033638;28;20045;-81
2023/06/03 04:11:42;;;;;;;3.47;0.68;;;9.70;99.90;;;;;;5016417;28;20046;-81
2023/06/03 04:14:10;;;;;;;5.30;1.05;;;9.70;99.90;;;;;;5016007;28;20041;-81
2023/06/03 04:16:55;;;;;;;6.85;0.90;;;9.70;99.90;;;;;;5012784;28;20084;-81
2023/06/03 04:19:21;;;;;;;1.48;0.80;;;9.70;99.90;;;;;;5031249;28;20049;-81
2023/06/03 04:21:47;;;;;;;2.95;0.80;;;9.80;99.90;;;;;;5033222;28;20511;-81
2023/06/03 04:24:17;;;;;;;1.80;0.95;;;9.80;99.90;;;;;;5016489;28;20049;-81
2023/06/03 04:26:49;;;;;;;1.42;0.60;;;9.90;99.90;;;;;;5016925;28;20060;-81
2023/06/03 04:29:15;;;;;;;2.47;0.80;;;10.00;99.90;;;;;;5034641;28;20080;-81
2023/06/03 04:31:41;;;;;;;1.38;0.63;;;10.00;99.90;;;;;;5016406;28;20053;-81
2023/06/03 04:34:07;;;;;;;3.05;1.00;;;10.10;99.90;;;;;;5014624;28;20045;-80
2023/06/03 04:36:33;;;;;;;3.92;1.00;;;10.20;99.90;;;;;;5014557;28;20080;-79
2023/06/03 04:38:58;;;;;;;2.20;0.60;;;10.20;99.90;;;;;;5030870;28;20505;-79
2023/06/03 04:41:27;;;;;;;1.30;0.60;;;10.30;99.90;;;;;;5034963;28;20041;-79
2023/06/03 04:43:56;;;;;;;2.17;0.80;;;10.40;99.90;;;;;;5016759;28;20046;-79
2023/06/03 04:46:29;;;;;;;3.10;0.73;;;10.50;99.90;;;;;;5030929;28;20045;-79
2023/06/03 04:48:57;;;;;;;3.22;0.70;;;10.50;99.90;;;;;;5014547;28;20057;-79
2023/06/03 04:51:29;;;;;;;3.40;0.80;;;10.70;99.90;;;;;;5016153;28;20033;-79
2023/06/03 04:53:57;;;;;;;2.08;0.93;;;10.80;99.90;;;;;;5012675;28;20038;-78
2023/06/03 04:56:24;;;;;;;1.88;0.70;;;11.30;99.90;;;;;;5014976;28;20132;-79
2023/06/03 04:59:00;;;;;;;4.00;1.10;;;11.70;99.90;;;;;;5015336;28;20060;-79
2023/06/03 05:01:27;;;;;;;3.58;1.00;;;12.10;99.90;;;;;;5015204;28;20124;-79
2023/06/03 05:03:54;;;;;;;2.90;1.00;;;12.30;99.90;;;;;;5011266;28;20041;-79
2023/06/03 05:06:20;;;;;;;1.98;0.55;;;12.40;99.90;;;;;;5029766;28;20045;-79
2023/06/03 05:08:50;;;;;;;3.17;0.75;;;12.30;99.90;;;;;;5027866;28;20054;-78
2023/06/03 05:11:20;;;;;;;3.00;1.00;;;12.40;99.90;;;;;;5028993;28;20813;-79
2023/06/03 05:13:46;;;;;;;4.80;0.70;;;12.80;99.90;;;;;;4990402;28;20060;-78
2023/06/03 05:16:12;;;;;;;2.83;0.70;;;13.00;99.90;;;;;;5012767;28;20442;-76
2023/06/03 05:18:40;;;;;;;2.20;1.00;;;12.80;99.90;;;;;;5011269;28;20050;-77
2023/06/03 05:21:06;;;;;;;3.15;1.00;;;12.60;99.90;;;;;;5008743;28;20049;-77
2023/06/03 05:23:32;;;;;;;5.32;1.25;;;12.50;99.90;;;;;;5023442;28;20088;-78
2023/06/03 05:25:58;;;;;;;3.22;0.80;;;12.30;99.90;;;;;;5029163;28;20048;-77
2023/06/03 05:28:27;;;;;;;4.20;1.25;;;12.30;99.90;;;;;;5029493;28;20033;-76
2023/06/03 05:30:53;;;;;;;2.17;0.82;;;12.20;99.90;;;;;;5011226;28;20030;-77
2023/06/03 05:33:26;;;;;;;2.53;0.93;;;12.30;99.90;;;;;;5007459;28;20685;-77
2023/06/03 05:35:51;;;;;;;1.92;0.90;;;12.40;99.90;;;;;;5028545;28;20073;-77
2023/06/03 05:38:21;;;;;;;1.88;0.70;;;12.40;99.90;;;;;;5011873;28;20058;-81
2023/06/03 05:40:50;;;;;;;2.35;1.08;;;12.50;99.90;;;;;;5027643;28;20037;-81
2023/06/03 05:43:20;;;;;;;2.60;0.50;;;12.50;99.90;;;;;;5012406;28;20060;-81
2023/06/03 05:45:46;;;;;;;4.05;0.80;;;12.50;99.90;;;;;;5013024;28;20099;-81
2023/06/03 05:48:12;;;;;;;1.67;0.95;;;12.60;99.90;;;;;;5010364;28;20049;-76
2023/06/03 05:50:48;;;;;;;2.67;0.70;;;12.70;99.90;;;;;;5014375;28;20504;-78
2023/06/03 05:53:13;;;;;;;3.78;0.98;;;12.70;99.90;;;;;;5009289;28;20905;-77
2023/06/03 05:55:39;;;;;;;2.42;0.80;;;12.80;99.90;;;;;;5012129;28;20124;-78
2023/06/03 05:58:05;;;;;;;2.08;0.60;;;12.90;99.90;;;;;;5028527;28;20083;-79
2023/06/03 06:00:31;;;;;;;2.38;0.70;;;13.00;99.90;;;;;;5015076;28;20029;-79
2023/06/03 06:02:57;;;;;;;2.50;0.68;;;13.10;98.80;;;;;;5005969;28;20045;-80
2023/06/03 06:05:23;;;;;;;2.45;1.23;;;13.20;98.60;;;;;;5012506;28;20436;-77
2023/06/03 06:07:48;;;;;;;3.25;1.17;;;13.30;98.70;;;;;;5012976;28;20493;-78
2023/06/03 06:10:14;;;;;;;6.10;0.80;;;13.30;99.00;;;;;;5029595;28;20052;-78
2023/06/03 06:12:40;;;;;;;4.35;0.70;;;13.40;98.10;;;;;;5011640;28;20395;-77
2023/06/03 06:15:06;;;;;;;2.67;0.85;;;13.50;98.70;;;;;;5029619;28;20053;-77
2023/06/03 06:17:32;;;;;;;4.32;1.05;;;13.70;98.50;;;;;;5029819;28;20046;-78
2023/06/03 06:19:59;;;;;;;1.45;0.70;;;13.80;97.40;;;;;;5012779;28;20390;-77
2023/06/03 06:22:25;;;;;;;2.53;0.70;;;14.00;98.60;;;;;;5027429;28;20380;-80
2023/06/03 06:24:51;;;;;;;1.63;0.57;;;14.10;98.00;;;;;;5013407;28;20117;-78
2023/06/03 06:27:18;;;;;;;2.58;0.73;;;14.20;98.00;;;;;;5033402;28;20052;-77
2023/06/03 06:29:44;;;;;;;2.88;0.57;;;14.30;96.40;;;;;;5028743;28;20041;-77
2023/06/03 06:32:20;;;;;;;3.17;0.85;;;14.40;97.00;;;;;;5010086;28;20061;-77
2023/06/03 06:34:46;;;;;;;1.77;0.70;;;14.50;96.70;;;;;;5029552;28;20042;-77
2023/06/03 06:37:13;;;;;;;1.73;0.80;;;14.50;95.90;;;;;;5025447;28;20048;-79
2023/06/03 06:39:50;;;;;;;3.72;0.77;;;14.60;96.00;;;;;;5006786;28;20124;-79
2023/06/03 06:42:34;;;;;;;2.13;0.75;;;14.80;96.50;;;;;;5008058;28;20448;-80
2023/06/03 06:45:14;;;;;;;1.90;0.50;;;14.80;94.80;;;;;;5025142;28;20038;-80
2023/06/03 06:47:41;;;;;;;2.38;0.70;;;14.90;95.10;;;;;;5008249;28;20045;-80
2023/06/03 06:50:29;;;;;;;4.28;0.60;;;15.00;94.20;;;;;;5026186;28;20041;-82
2023/06/03 06:52:55;;;;;;;2.53;0.70;;;15.10;90.60;;;;;;5007762;28;20141;-80
2023/06/03 06:55:54;;;;;;;2.08;0.85;;;15.20;92.20;;;;;;5010598;28;20081;-80
2023/06/03 06:58:21;;;;;;;2.33;0.68;;;15.40;92.30;;;;;;5006265;28;20049;-81
2023/06/03 07:00:48;;;;;;;3.50;0.60;;;15.50;91.20;;;;;;5026160;28;20044;-80
2023/06/03 07:03:23;;;;;;;1.48;0.50;;;15.70;90.80;;;;;;5015386;28;20114;-79
2023/06/03 07:05:53;;;;;;;3.50;0.60;;;15.90;89.10;;;;;;5015746;28;20096;-80
2023/06/03 07:08:21;;;;;;;2.85;0.40;;;16.00;87.90;;;;;;5032694;28;20041;-81
2023/06/03 07:10:50;;;;;;;2.90;0.40;;;16.20;85.90;;;;;;5013433;28;20041;-80
2023/06/03 07:13:16;;;;;;;2.38;0.68;;;16.30;87.80;;;;;;4996311;28;20048;-80
2023/06/03 07:15:43;;;;;;;2.60;0.65;;;16.50;86.30;;;;;;5033330;28;20044;-82
2023/06/03 07:18:09;;;;;;;0.93;0.40;;;16.70;84.50;;;;;;5031028;28;20077;-82
2023/06/03 07:20:41;;;;;;;1.60;0.60;;;16.80;81.80;;;;;;5029081;28;20147;-80
2023/06/03 07:23:12;;;;;;;3.80;0.60;;;16.90;82.90;;;;;;5013487;28;20060;-81
2023/06/03 07:25:43;;;;;;;2.92;0.70;;;16.90;78.30;;;;;;5016296;28;20037;-82
2023/06/03 07:28:24;;;;;;;0.80;0.30;;;16.90;79.20;;;;;;5026635;28;20254;-83
2023/06/03 07:30:52;;;;;;;1.80;0.43;;;17.10;80.00;;;;;;5028152;28;20041;-81
2023/06/03 07:33:34;;;;;;;1.92;0.47;;;17.20;82.10;;;;;;5032865;28;20096;-81
2023/06/03 07:36:03;;;;;;;3.90;0.52;;;17.40;80.30;;;;;;5012896;28;20041;-81
2023/06/03 07:38:37;;;;;;;2.05;0.60;;;17.60;79.30;;;;;;5030654;28;20410;-80
2023/06/03 07:41:04;;;;;;;1.88;0.40;;;17.60;78.50;;;;;;5030803;28;20068;-81
2023/06/03 07:43:30;;;;;;;2.63;0.55;;;17.70;74.90;;;;;;5032924;28;20045;-82
2023/06/03 07:45:56;;;;;;;1.60;0.60;;;17.70;73.30;;;;;;5014153;28;21872;-82
2023/06/03 07:48:23;;;;;;;2.78;0.55;;;17.80;74.50;;;;;;5032107;28;20040;-82
2023/06/03 07:50:49;;;;;;;2.53;0.70;;;17.80;74.80;;;;;;5014802;28;20029;-82
2023/06/03 07:53:24;;;;;;;1.98;0.45;;;18.00;73.80;;;;;;5011680;28;20946;-82
2023/06/03 07:55:50;;;;;;;1.90;0.47;;;18.10;70.40;;;;;;5029878;28;20435;-82
2023/06/03 07:58:20;;;;;;;0.82;0.40;;;18.20;74.30;;;;;;5027941;28;20037;-82
2023/06/03 08:00:50;;;;;;;0.95;0.30;;;18.30;67.30;;;;;;5012836;28;20517;-80
2023/06/03 08:03:22;;;;;;;1.90;0.55;;;18.40;68.00;;;;;;5011650;28;20037;-81
2023/06/03 08:05:50;;;;;;;3.63;0.70;;;18.50;68.00;;;;;;5011681;28;20032;-82
2023/06/03 08:08:18;;;;;;;1.75;0.30;;;18.50;64.70;;;;;;4996694;28;20041;-81
2023/06/03 08:10:49;;;;;;;1.27;0.40;;;18.50;67.00;;;;;;5029831;28;20037;-82
2023/06/03 08:13:20;;;;;;;1.35;0.50;;;18.50;65.60;;;;;;5012097;28;20657;-81
2023/06/03 08:15:47;;;;;;;3.03;0.50;;;18.30;65.60;;;;;;5031109;28;20046;-81
2023/06/03 08:18:50;;;;;;;1.38;0.43;;;18.20;65.30;;;;;;5011185;28;20041;-80
2023/06/03 08:21:16;;;;;;;4.03;0.30;;;18.20;65.40;;;;;;5004473;28;20045;-82
2023/06/03 08:23:45;;;;;;;0.80;0.35;;;18.20;62.00;;;;;;5029639;28;20030;-82
2023/06/03 08:26:11;;;;;;;1.85;0.50;;;18.20;62.70;;;;;;5029448;28;20052;-82
2023/06/03 08:28:40;;;;;;;2.22;0.73;;;18.10;62.30;;;;;;4998535;28;20312;-80
2023/06/03 08:31:07;;;;;;;2.75;0.40;;;18.10;61.30;;;;;;5023918;28;20065;-81
2023/06/03 08:33:32;;;;;;;1.30;0.50;;;18.40;63.50;;;;;;5024225;28;20037;-83
2023/06/03 08:35:58;;;;;;;1.17;0.40;;;18.70;59.70;;;;;;5032882;28;20041;-82
2023/06/03 08:38:24;;;;;;;1.40;0.30;;;19.00;58.90;;;;;;5014957;28;20053;-82
2023/06/03 08:40:51;;;;;;;1.92;0.40;;;19.30;60.30;;;;;;5034062;28;20050;-82
2023/06/03 08:43:21;;;;;;;3.80;0.40;;;19.40;59.60;;;;;;5015923;28;20079;-82
2023/06/03 08:46:01;;;;;;;2.72;0.30;;;19.70;57.00;;;;;;5032047;28;20046;-83
2023/06/03 08:48:50;;;;;;;1.85;0.43;;;20.00;53.80;;;;;;5014419;28;20045;-82
2023/06/03 08:51:22;;;;;;;2.42;0.28;;;20.10;53.50;;;;;;5031370;28;20041;-83
2023/06/03 08:53:52;;;;;;;3.40;0.50;;;20.40;51.40;;;;;;5015007;28;20473;-83
2023/06/03 08:56:20;;;;;;;2.05;0.20;;;20.60;51.70;;;;;;5015787;28;20489;-84
2023/06/03 08:58:56;;;;;;;1.23;0.30;;;20.90;51.60;;;;;;5013801;28;20033;-83
2023/06/03 09:01:29;;;;;;;4.95;0.40;;;21.00;51.70;;;;;;5028932;28;20041;-84
2023/06/03 09:03:56;;;;;;;0.80;0.20;;;20.90;46.90;;;;;;5014165;28;20385;-83
2023/06/03 09:06:22;;;;;;;2.05;0.47;;;20.60;49.30;;;;;;5033551;28;20466;-83
2023/06/03 09:08:50;;;;;;;2.78;0.40;;;20.40;49.20;;;;;;5012932;28;20068;-82
2023/06/03 09:11:20;;;;;;;2.33;0.40;;;20.00;49.70;;;;;;5030694;28;20571;-82
2023/06/03 09:13:46;;;;;;;2.42;0.30;;;19.70;50.40;;;;;;5013353;28;20056;-83
2023/06/03 09:16:13;;;;;;;2.45;0.30;;;19.30;48.80;;;;;;5029821;28;20460;-82
2023/06/03 09:18:40;;;;;;;2.42;0.30;;;19.10;51.20;;;;;;5030464;28;20528;-82
2023/06/03 09:21:10;;;;;;;2.55;0.45;;;19.10;49.70;;;;;;5014755;28;20252;-83
2023/06/03 09:23:39;;;;;;;1.15;0.40;;;19.30;50.10;;;;;;5012499;28;20038;-83
2023/06/03 09:26:06;;;;;;;1.52;0.35;;;19.70;51.30;;;;;;5001153;28;20041;-83
2023/06/03 09:28:34;;;;;;;3.45;0.40;;;20.10;48.80;;;;;;5029459;28;20037;-83
2023/06/03 09:31:00;;;;;;;1.90;0.40;;;20.30;47.90;;;;;;4998523;28;20482;-84
2023/06/03 09:33:26;;;;;;;2.58;0.47;;;20.60;48.70;;;;;;5013911;28;20105;-82
2023/06/03 09:36:12;;;;;;;2.00;0.30;;;20.90;47.80;;;;;;5030877;28;20476;-83
2023/06/03 09:38:51;;;;;;;1.25;0.30;;;21.00;48.30;;;;;;5012927;28;20140;-83
2023/06/03 09:41:21;;;;;;;1.60;0.40;;;21.10;47.30;;;;;;5015487;28;20044;-83
2023/06/03 09:43:54;;;;;;;3.78;0.40;;;21.20;45.40;;;;;;5013236;28;20044;-83
2023/06/03 09:46:20;;;;;;;5.47;0.45;;;21.20;45.00;;;;;;5028983;28;20049;-84
2023/06/03 09:48:46;;;;;;;1.95;0.22;;;21.30;44.40;;;;;;5012123;28;20444;-83
2023/06/03 09:51:12;;;;;;;2.40;0.40;;;21.10;45.30;;;;;;5013483;28;20105;-84
2023/06/03 09:53:37;;;;;;;2.08;0.32;;;21.00;45.30;;;;;;5035338;28;20042;-83
2023/06/03 09:56:25;;;;;;;3.10;0.60;;;21.00;45.40;;;;;;5021598;28;20041;-82
2023/06/03 09:58:53;;;;;;;2.03;0.50;;;21.20;46.00;;;;;;5034118;28;20065;-83
2023/06/03 10:01:30;;;;;;;2.90;0.35;;;21.30;44.80;;;;;;5018859;28;20100;-83
2023/06/03 10:04:00;;;;;;;1.45;0.47;;;21.40;46.60;;;;;;5036627;28;20040;-83
2023/06/03 10:06:26;;;;;;;3.22;0.45;;;21.40;45.40;;;;;;5033949;28;20080;-83
2023/06/03 10:08:52;;;;;;;3.83;0.32;;;21.70;48.10;;;;;;5024152;28;20041;-83
2023/06/03 10:11:23;;;;;;;2.72;0.40;;;22.00;46.20;;;;;;5032908;28;20048;-84
2023/06/03 10:14:15;;;;;;;3.63;0.50;;;22.10;44.20;;;;;;5027840;28;20057;-81
2023/06/03 10:17:00;;;;;;;3.25;0.50;;;22.10;44.10;;;;;;5024364;28;20505;-84
2023/06/03 10:19:26;;;;;;;1.92;0.30;;;22.00;44.60;;;;;;5031295;28;20046;-84
2023/06/03 10:21:52;;;;;;;2.00;0.50;;;21.80;44.10;;;;;;5037711;28;20052;-84
2023/06/03 10:24:18;;;;;;;4.05;0.52;;;21.70;43.80;;;;;;5002734;28;20043;-82
2023/06/03 10:26:45;;;;;;;2.90;0.50;;;21.60;44.50;;;;;;5025018;28;20412;-83
2023/06/03 10:29:11;;;;;;;1.80;0.60;;;21.70;43.90;;;;;;5035366;28;20045;-82
2023/06/03 10:31:39;;;;;;;1.75;0.40;;;21.70;43.90;;;;;;5034057;28;20049;-81
2023/06/03 10:34:05;;;;;;;1.10;0.40;;;21.80;45.30;;;;;;5041744;28;20053;-81
2023/06/03 10:36:31;;;;;;;2.97;0.50;;;21.90;44.70;;;;;;5021811;28;20050;-81
2023/06/03 10:39:05;;;;;;;1.98;0.50;;;22.00;44.50;;;;;;5046151;28;20060;-83
2023/06/03 10:41:32;;;;;;;1.52;0.30;;;22.10;44.20;;;;;;5032010;28;20045;-83
2023/06/03 10:43:58;;;;;;;3.72;0.50;;;22.20;43.20;;;;;;5016836;28;20036;-83
2023/06/03 10:46:24;;;;;;;1.05;0.30;;;22.30;43.20;;;;;;5028806;28;20098;-83
2023/06/03 10:48:50;;;;;;;0.85;0.28;;;22.50;43.70;;;;;;5034174;28;20049;-83
2023/06/03 10:51:45;;;;;;;0.98;0.35;;;22.50;41.80;;;;;;5053667;28;20151;-82
2023/06/03 10:54:38;;;;;;;2.83;0.35;;;22.70;42.70;;;;;;4985092;28;20051;-79
2023/06/03 10:57:08;;;;;;;2.30;0.30;;;22.80;42.60;;;;;;5027104;28;20080;-83
2023/06/03 10:59:46;;;;;;;1.90;0.50;;;22.60;40.40;;;;;;5032866;28;20044;-83
2023/06/03 11:02:12;;;;;;;2.97;0.50;;;22.90;43.80;;;;;;5027718;28;20057;-83
2023/06/03 11:04:39;;;;;;;3.28;0.50;;;23.00;41.60;;;;;;5025579;28;20125;-82
2023/06/03 11:07:07;;;;;;;4.70;0.47;;;22.70;42.00;;;;;;5044099;28;20049;-81
2023/06/03 11:09:37;;;;;;;1.40;0.32;;;22.80;43.30;;;;;;5030586;28;20041;-82
2023/06/03 11:12:06;;;;;;;2.13;0.40;;;23.00;40.60;;;;;;5049123;28;20052;-82
2023/06/03 11:14:40;;;;;;;2.83;0.57;;;23.00;40.90;;;;;;5044690;28;20091;-81
2023/06/03 11:17:08;;;;;;;2.67;0.32;;;22.70;39.00;;;;;;5026862;28;20076;-80
2023/06/03 11:19:36;;;;;;;4.25;0.60;;;22.70;41.80;;;;;;5026454;28;20453;-80
2023/06/03 11:22:09;;;;;;;1.13;0.40;;;22.70;41.80;;;;;;5042654;28;20030;-81
2023/06/03 11:24:44;;;;;;;1.25;0.30;;;22.70;40.40;;;;;;5046589;28;20045;-82
2023/06/03 11:27:15;;;;;;;2.70;0.43;;;22.80;42.60;;;;;;5045839;28;20042;-81
2023/06/03 11:29:51;;;;;;;2.17;0.30;;;23.00;42.80;;;;;;5023229;28;20041;-82
2023/06/03 11:32:20;;;;;;;1.90;0.40;;;23.30;42.50;;;;;;5046638;28;20045;-82
2023/06/03 11:34:59;;;;;;;1.88;0.68;;;23.50;43.10;;;;;;5021643;28;20034;-80
2023/06/03 11:37:52;;;;;;;1.48;0.40;;;23.60;41.50;;;;;;5043174;28;20068;-82
2023/06/03 11:40:20;;;;;;;3.03;0.40;;;23.40;40.00;;;;;;5034433;28;20075;-83
2023/06/03 11:42:53;;;;;;;1.08;0.30;;;23.00;39.50;;;;;;5028442;28;20046;-83
2023/06/03 11:45:26;;;;;;;2.77;0.33;;;23.00;40.00;;;;;;5046235;28;20067;-81
2023/06/03 11:47:56;;;;;;;1.13;0.40;;;23.00;39.00;;;;;;5046274;28;20037;-82
2023/06/03 11:50:24;;;;;;;4.10;0.40;;;22.80;39.50;;;;;;5048705;28;20076;-80
2023/06/03 11:52:51;;;;;;;1.73;0.50;;;22.90;39.50;;;;;;5031728;28;20029;-80
2023/06/03 11:55:24;;;;;;;3.05;0.40;;;22.90;41.60;;;;;;5044142;28;20045;-82
2023/06/03 11:57:50;;;;;;;;;;;23.10;40.20;;;;;;5051871;28;20061;-81
2023/06/03 12:00:20;;;;;;;5.45;0.50;;;23.00;40.50;;;;;;5047875;28;19913;-81
2023/06/03 12:02:47;;;;;;;4.93;0.60;;;22.80;39.80;;;;;;5034630;28;20049;-81
2023/06/03 12:05:15;;;;;;;1.90;0.40;;;22.80;41.30;;;;;;5028121;28;20037;-82
2023/06/03 12:07:43;;;;;;;1.42;0.60;;;23.10;40.80;;;;;;5035614;28;20458;-81
2023/06/03 12:10:11;;;;;;;2.63;0.50;;;23.30;41.40;;;;;;5046029;28;20038;-79
2023/06/03 12:12:52;;;;;;;1.75;0.55;;;23.60;41.40;;;;;;5024524;28;20101;-81
2023/06/03 12:15:19;;;;;;;3.38;0.75;;;23.30;38.70;;;;;;5031811;28;20051;-84
2023/06/03 12:17:45;;;;;;;1.27;0.47;;;22.90;40.50;;;;;;5052088;28;20045;-84
2023/06/03 12:20:26;;;;;;;1.60;0.50;;;22.90;41.80;;;;;;5034494;28;20041;-84
2023/06/03 12:23:03;;;;;;;1.15;0.40;;;23.40;41.50;;;;;;5044861;28;20030;-83
2023/06/03 12:25:29;;;;;;;1.15;0.47;;;23.60;39.50;;;;;;5029603;28;20049;-83
2023/06/03 12:27:56;;;;;;;0.93;0.22;;;23.70;40.70;;;;;;5044368;28;20106;-83
2023/06/03 12:30:29;;;;;;;1.75;0.35;;;23.60;38.60;;;;;;5044898;28;20038;-85
2023/06/03 12:32:58;;;;;;;2.50;0.50;;;23.40;40.40;;;;;;5044744;28;20315;-84
2023/06/03 12:35:25;;;;;;;1.35;0.30;;;23.20;40.10;;;;;;5034991;28;20106;-83
2023/06/03 12:38:08;;;;;;;1.50;0.40;;;23.30;39.90;;;;;;5023139;28;20053;-81
2023/06/03 12:40:35;;;;;;;2.85;0.50;;;23.40;42.90;;;;;;5042941;28;20065;-84
2023/06/03 12:43:02;;;;;;;1.92;0.55;;;23.50;40.20;;;;;;5049125;28;20029;-83
2023/06/03 12:45:28;;;;;;;2.15;0.40;;;23.10;40.70;;;;;;5028807;28;20037;-83
2023/06/03 12:47:55;;;;;;;1.58;0.50;;;22.80;40.50;;;;;;5033279;28;20117;-84
2023/06/03 12:50:23;;;;;;;2.15;0.40;;;22.80;41.30;;;;;;5033372;28;20037;-83
2023/06/03 12:52:49;;;;;;;1.00;0.40;;;23.00;41.10;;;;;;5034430;28;20045;-84
2023/06/03 12:55:20;;;;;;;1.13;0.50;;;23.20;42.50;;;;;;5044794;28;20042;-82
2023/06/03 12:57:48;;;;;;;1.35;0.40;;;23.20;40.00;;;;;;5014654;28;20145;-83
2023/06/03 13:00:21;;;;;;;2.10;0.45;;;23.30;40.30;;;;;;5027968;28;20045;-82